Latest Weather Observations for Young

IDN60801

Issued at 5:05 pm EST Thursday 17 April 2014 (issued every 30 minutes, with the page automatically refreshed every 10 minutes)

About weather observations | Map of weather stations | Latest weather observations for NSW | Other Formats
Station Details ID: 073138 Name: YOUNG AIRPORT Lat: -34.25 Lon: 148.25 Height: 379.6 m
Data from the previous 72 hours. | See also: Recent months at Young
Date/Time
EST
Temp
°C
App
Temp
°C
Dew
Point
Rel
Hum
%
Delta-T
°C
Wind Press
QNH
hPa
Press
MSL
hPa
Rain
since 9 am
mm
Dir
 
Spd
km/h
Gust
km/h
Spd
kts
Gust
kts
17/05:00pm 18.3 16.4 9.1 55 4.9 SSW 9 13 5 7 1019.1 1018.6 0.0
17/04:30pm 19.0 16.6 8.6 51 5.5 SSW 11 15 6 8 1019.0 - 0.0
17/04:00pm 19.5 17.0 9.7 53 5.3 SSW 13 17 7 9 1019.2 1018.7 0.0
17/03:30pm 19.5 16.4 8.8 50 5.7 SSW 15 19 8 10 1019.1 - 0.0
17/03:00pm 19.6 16.8 8.6 49 5.8 SSW 13 15 7 8 1019.2 1018.7 0.0
17/02:30pm 19.5 16.7 8.5 49 5.8 S 13 17 7 9 1019.2 - 0.0
17/02:00pm 18.9 16.3 9.4 54 5.1 SSW 13 19 7 10 1019.4 1018.9 0.0
17/01:30pm 19.6 17.3 10.6 56 5.0 SSW 13 24 7 13 1019.6 - 0.0
17/01:00pm 19.2 16.6 9.4 53 5.3 SW 13 20 7 11 1019.9 1019.4 0.0
17/12:30pm 19.6 16.7 9.8 53 5.3 SW 15 20 8 11 1020.3 - 0.0
17/12:00pm 18.9 15.9 9.4 54 5.1 S 15 20 8 11 1020.7 1020.2 0.0
17/11:30am 19.3 16.4 9.8 54 5.1 SSW 15 26 8 14 1021.1 - 0.0
17/11:00am 18.2 17.1 10.8 62 4.1 S 7 13 4 7 1021.4 1020.9 0.0
17/10:30am 17.3 17.1 10.4 64 3.7 SSE 2 7 1 4 1021.4 - 0.0
17/10:00am 16.0 15.9 10.7 71 2.9 SSE 2 7 1 4 1021.6 1021.1 0.0
17/09:30am 14.7 13.8 10.5 76 2.2 SE 6 7 3 4 1021.6 - 0.0
17/09:00am 13.2 12.7 10.6 84 1.4 S 4 7 2 4 1021.7 1021.2 0.0
17/08:30am 11.2 10.1 9.8 91 0.7 SSE 6 6 3 3 1021.6 - 0.0
17/08:00am 8.9 8.5 8.1 95 0.4 CALM 0 0 0 0 1021.4 1020.9 0.0
17/07:30am 6.8 6.0 6.5 98 0.1 CALM 0 0 0 0 1021.1 - 0.0
17/07:00am 5.1 3.9 4.8 98 0.1 CALM 0 0 0 0 1020.6 1020.1 0.0
17/06:30am 4.6 3.3 4.3 98 0.1 CALM 0 0 0 0 1020.0 - 0.0
17/06:00am 4.6 3.3 4.2 97 0.2 CALM 0 2 0 1 1019.5 1019.0 0.0
17/05:30am 4.8 2.4 4.5 98 0.1 S 6 6 3 3 1019.2 - 0.0
17/05:00am 4.6 2.0 4.2 97 0.2 S 7 7 4 4 1019.2 1018.7 0.0
17/04:30am 4.9 2.6 4.6 98 0.1 S 6 7 3 4 1019.1 - 0.0
17/04:00am 5.0 2.7 4.6 97 0.2 S 6 7 3 4 1019.0 1018.5 0.0
17/03:30am 5.2 3.3 4.8 97 0.2 S 4 7 2 4 1018.9 - 0.0
17/03:00am 5.3 3.0 4.9 97 0.2 S 6 7 3 4 1019.0 1018.5 0.0
17/02:30am 5.6 3.1 5.0 96 0.3 S 7 9 4 5 1019.1 - 0.0
17/02:00am 5.8 3.6 5.2 96 0.3 SSW 6 6 3 3 1019.4 1018.9 0.0
17/01:30am 6.1 4.0 5.7 97 0.2 S 6 7 3 4 1019.5 - 0.0
17/01:00am 6.2 3.9 5.8 97 0.2 S 7 9 4 5 1019.7 1019.2 0.0
17/12:30am 6.3 4.2 5.7 96 0.3 SSW 6 6 3 3 1019.7 - 0.0
17/12:00am 6.6 4.5 6.0 96 0.3 SSW 6 7 3 4 1019.8 1019.3 0.0
 
Date/Time
EST
Temp
°C
App
Temp
°C
Dew
Point
Rel
Hum
%
Delta-T
°C
Wind Press
QNH
hPa
Press
MSL
hPa
Rain
since 9 am
mm
Dir
 
Spd
km/h
Gust
km/h
Spd
kts
Gust
kts
16/11:30pm 6.9 4.9 6.3 96 0.3 SSW 6 7 3 4 1019.9 - 0.0
16/11:00pm 7.0 5.0 6.3 95 0.3 SSW 6 7 3 4 1020.0 1019.6 0.0
16/10:30pm 7.6 6.9 6.9 95 0.3 CALM 0 0 0 0 1020.1 - 0.0
16/10:00pm 7.6 5.7 6.7 94 0.4 S 6 7 3 4 1020.3 1019.8 0.0
16/09:30pm 8.3 6.4 7.5 95 0.4 S 7 7 4 4 1020.3 - 0.0
16/09:00pm 8.4 6.6 7.3 93 0.5 SSW 6 7 3 4 1020.0 1019.6 0.0
16/08:30pm 9.2 7.4 8.0 92 0.6 SSW 7 7 4 4 1019.8 - 0.0
16/08:00pm 9.8 8.2 8.2 90 0.8 S 6 7 3 4 1019.6 1019.1 0.0
16/07:30pm 10.2 8.5 8.5 89 0.8 SW 7 9 4 5 1019.4 - 0.0
16/07:00pm 10.7 9.2 9.0 89 0.9 SSW 7 11 4 6 1019.3 1018.8 0.0
16/06:30pm 12.4 11.3 9.8 84 1.4 SSW 6 7 3 4 1019.1 - 0.0
16/06:00pm 14.2 14.3 10.0 76 2.2 CALM 0 0 0 0 1018.9 1018.4 0.0
16/05:30pm 17.4 16.3 10.1 62 3.9 S 6 7 3 4 1018.7 - 0.0
16/05:00pm 18.9 17.4 9.1 53 5.2 SW 7 9 4 5 1018.6 1018.1 0.0
16/04:30pm 19.3 17.1 8.0 48 5.9 SW 9 13 5 7 1018.4 - 0.0
16/04:00pm 19.6 17.0 9.2 51 5.6 SSW 13 17 7 9 1018.3 1017.8 0.0
16/03:30pm 19.9 17.9 8.6 48 6.0 S 9 15 5 8 1018.4 - 0.0
16/03:00pm 20.5 18.7 9.4 49 6.0 SW 9 19 5 10 1018.5 1018.0 0.0
16/02:30pm 20.2 17.7 8.2 46 6.4 S 11 15 6 8 1018.5 - 0.0
16/02:00pm 20.1 17.8 9.1 49 5.9 S 11 17 6 9 1018.6 1018.1 0.0
16/01:30pm 19.8 17.6 9.4 51 5.6 S 11 17 6 9 1018.9 - 0.0
16/01:00pm 19.4 17.6 7.8 47 6.1 ESE 7 15 4 8 1019.2 1018.7 0.0
16/12:30pm 18.6 15.7 6.4 45 6.2 SE 11 17 6 9 1019.7 - 0.0
16/12:00pm 19.1 17.3 9.3 53 5.2 E 9 17 5 9 1020.1 1019.7 0.0
16/11:30am 18.5 16.3 9.3 55 4.9 ENE 11 17 6 9 1020.5 - 0.0
16/11:00am 17.9 15.5 8.7 55 4.8 E 11 17 6 9 1020.9 1020.4 0.0
16/10:30am 17.2 14.7 8.4 56 4.6 ESE 11 19 6 10 1021.1 - 0.0
16/10:00am 16.5 12.6 8.5 59 4.2 E 19 24 10 13 1021.3 1020.8 0.0
16/09:30am 16.0 13.1 8.2 60 4.0 ESE 13 19 7 10 1021.6 - 0.0
16/09:00am 14.9 11.7 8.6 66 3.2 SE 15 20 8 11 1021.8 1021.3 0.0
16/08:30am 13.4 11.4 8.7 73 2.4 SSE 9 11 5 6 1021.7 - 0.0
16/08:00am 11.6 9.8 7.9 78 1.8 S 7 11 4 6 1021.5 1021.0 0.0
16/07:30am 8.5 7.8 7.1 91 0.7 CALM 0 0 0 0 1021.2 - 0.0
16/07:00am 9.4 7.9 6.8 84 1.2 WSW 4 7 2 4 1020.9 1020.4 0.0
16/06:30am 9.7 7.9 7.0 83 1.3 SSW 6 7 3 4 1020.3 - 0.0
16/06:00am 10.9 9.0 7.6 80 1.6 S 7 9 4 5 1020.1 1019.7 0.0
16/05:30am 11.2 8.6 7.7 79 1.7 SE 11 15 6 8 1019.9 - 0.0
16/05:00am 11.9 9.4 8.4 79 1.8 SSE 11 17 6 9 1019.9 1019.4 0.0
16/04:30am 12.0 8.8 8.3 78 1.9 SE 15 20 8 11 1020.0 - 0.0
16/04:00am 11.6 9.5 8.3 80 1.7 SSE 9 17 5 9 1019.9 1019.4 0.0
16/03:30am 11.7 10.0 8.2 79 1.8 SSE 7 13 4 7 1019.8 - 0.0
16/03:00am 12.0 9.9 8.3 78 1.9 SE 9 15 5 8 1019.6 1019.1 0.0
16/02:30am 12.2 9.4 8.5 78 1.9 SE 13 19 7 10 1019.8 - 0.0
16/02:00am 12.3 9.6 8.8 79 1.8 SE 13 22 7 12 1020.1 1019.7 0.0
16/01:30am 12.5 10.3 9.3 81 1.7 ESE 11 22 6 12 1020.4 - 0.0
16/01:00am 12.5 10.8 9.7 83 1.5 SE 9 15 5 8 1020.7 1020.2 0.0
16/12:30am 12.5 10.4 9.7 83 1.5 SSE 11 13 6 7 1020.7 - 0.0
16/12:00am 13.0 11.3 9.8 81 1.7 SE 9 13 5 7 1020.6 1020.1 0.0
 
Date/Time
EST
Temp
°C
App
Temp
°C
Dew
Point
Rel
Hum
%
Delta-T
°C
Wind Press
QNH
hPa
Press
MSL
hPa
Rain
since 9 am
mm
Dir
 
Spd
km/h
Gust
km/h
Spd
kts
Gust
kts
15/11:30pm 13.3 11.3 10.1 81 1.7 SE 11 17 6 9 1020.6 - 0.0
15/11:00pm 13.6 12.2 10.8 83 1.5 SE 9 15 5 8 1020.8 1020.3 0.0
15/10:30pm 11.3 9.6 9.7 90 0.8 SW 9 11 5 6 1020.7 - 0.0
15/10:00pm 8.8 6.5 7.4 91 0.7 SW 9 11 5 6 1020.6 1020.1 0.0
15/09:30pm 8.7 6.7 7.3 91 0.7 S 7 9 4 5 1020.7 - 0.0
15/09:00pm 8.8 7.1 7.4 91 0.7 SW 6 7 3 4 1020.5 1020.0 0.0
15/08:30pm 9.3 7.6 7.7 90 0.8 SSW 6 7 3 4 1020.1 - 0.0
15/08:00pm 9.3 7.5 7.9 91 0.7 S 7 9 4 5 1019.9 1019.4 0.0
15/07:30pm 10.3 8.7 8.1 86 1.1 SSW 6 7 3 4 1019.9 - 0.0
15/07:00pm 10.4 8.6 8.0 85 1.2 SSW 7 9 4 5 1019.7 1019.2 0.0
15/06:30pm 11.6 10.1 8.5 81 1.6 WSW 6 7 3 4 1019.5 - 0.0
15/06:00pm 14.3 12.6 8.5 68 3.0 SW 7 9 4 5 1019.4 1018.9 0.0
15/05:30pm 16.4 14.0 8.6 60 4.1 S 11 13 6 7 1019.2 - 0.0
15/05:00pm 18.3 15.1 8.6 53 5.1 S 15 19 8 10 1019.0 1018.5 0.0
15/04:30pm 19.1 14.9 7.5 47 6.0 S 19 22 10 12 1019.0 - 0.0
15/04:00pm 19.6 16.6 7.7 46 6.2 SSE 13 19 7 10 1019.0 1018.5 0.0
15/03:30pm 19.5 16.1 7.6 46 6.2 SSE 15 17 8 9 1019.0 - 0.0
15/03:00pm 19.5 16.4 7.3 45 6.3 S 13 17 7 9 1019.1 1018.6 0.0
15/02:30pm 19.7 17.6 8.1 47 6.1 ESE 9 15 5 8 1019.1 - 0.0
15/02:00pm 19.4 16.3 7.2 45 6.3 SE 13 20 7 11 1019.1 1018.6 0.0
15/01:30pm 19.7 17.3 8.7 49 5.9 SSE 11 15 6 8 1019.3 - 0.0
15/01:00pm 19.3 15.9 9.2 52 5.4 S 17 20 9 11 1019.5 1019.0 0.0
15/12:30pm 19.1 17.4 9.9 55 5.0 ESE 9 15 5 8 1019.9 - 0.0
15/12:00pm 18.6 15.9 9.1 54 5.1 ESE 13 20 7 11 1020.5 1020.0 0.0
15/11:30am 18.0 14.8 8.3 53 5.1 E 15 20 8 11 1021.1 - 0.0
15/11:00am 17.4 13.3 7.7 53 5.0 E 19 24 10 13 1021.3 1020.8 0.0
15/10:30am 17.1 13.7 7.7 54 4.8 SE 15 22 8 12 1021.4 - 0.0
15/10:00am 16.3 12.2 7.8 57 4.3 SE 19 24 10 13 1021.5 1021.0 0.0
15/09:30am 15.8 12.9 8.1 60 4.0 ESE 13 20 7 11 1021.6 - 0.0
15/09:00am 14.6 11.0 6.9 60 3.8 ESE 15 20 8 11 1021.7 1021.2 0.0
15/08:30am 13.9 11.2 7.2 64 3.3 SE 11 17 6 9 1021.7 - 0.0
15/08:00am 12.9 10.4 6.7 66 3.0 SSE 9 17 5 9 1021.5 1021.0 0.0
15/07:30am 11.5 9.1 7.2 75 2.1 SSW 9 11 5 6 1021.3 - 0.0
15/07:00am 9.4 6.9 6.7 83 1.3 SSW 9 11 5 6 1020.9 1020.4 0.0
15/06:30am 9.1 6.2 6.4 83 1.3 SSW 11 11 6 6 1020.7 - 0.0
15/06:00am 8.8 5.9 6.4 85 1.1 SW 11 11 6 6 1020.6 1020.1 0.0
15/05:30am 9.2 6.7 6.6 84 1.2 SSW 9 11 5 6 1020.5 - 0.0
15/05:00am 9.9 7.5 6.8 81 1.5 S 9 11 5 6 1020.5 1020.0 0.0
15/04:30am 10.9 7.4 7.4 79 1.7 SSE 15 20 8 11 1020.4 - 0.0
15/04:00am 11.3 7.9 7.8 79 1.7 SSE 15 20 8 11 1020.1 1019.7 0.0
15/03:30am 11.6 8.4 8.6 82 1.5 SE 15 20 8 11 1020.0 - 0.0
15/03:00am 11.5 8.8 8.9 84 1.3 SE 13 20 7 11 1020.1 1019.7 0.0
15/02:30am 11.6 9.3 9.0 84 1.3 SE 11 17 6 9 1020.3 - 0.0
15/02:00am 11.5 8.8 9.1 85 1.2 SE 13 19 7 10 1020.5 1020.0 0.0
15/01:30am 11.3 9.4 9.0 86 1.2 SE 9 13 5 7 1020.7 - 0.0
15/01:00am 11.4 9.1 9.1 86 1.2 SE 11 13 6 7 1020.6 1020.1 0.0
15/12:30am 11.5 9.3 9.2 86 1.2 SSE 11 13 6 7 1020.7 - 0.0
15/12:00am 11.6 10.2 9.0 84 1.3 SSW 6 9 3 5 1020.7 1020.2 0.0
 
Date/Time
EST
Temp
°C
App
Temp
°C
Dew
Point
Rel
Hum
%
Delta-T
°C
Wind Press
QNH
hPa
Press
MSL
hPa
Rain
since 9 am
mm
Dir
 
Spd
km/h
Gust
km/h
Spd
kts
Gust
kts
14/11:30pm 12.1 10.8 9.1 82 1.5 ESE 6 9 3 5 1020.7 - 0.0
14/11:00pm 12.7 11.2 9.2 79 1.8 SSW 7 11 4 6 1020.7 1020.2 0.0
14/10:30pm 13.7 11.2 9.7 77 2.1 ESE 13 20 7 11 1020.6 - 0.0
14/10:00pm 13.9 11.0 9.7 76 2.2 E 15 20 8 11 1020.6 1020.1 0.0
14/09:30pm 14.1 11.3 9.9 76 2.2 E 15 22 8 12 1020.5 - 0.0
14/09:00pm 14.2 11.8 10.2 77 2.1 E 13 20 7 11 1020.5 1020.0 0.0
14/08:30pm 14.6 11.9 10.4 76 2.2 ESE 15 20 8 11 1020.3 - 0.0
14/08:00pm 14.2 12.4 11.0 81 1.7 ESE 11 15 6 8 1020.0 1019.6 0.0
14/07:30pm 11.0 9.5 9.3 89 0.9 S 7 11 4 6 1019.8 - 0.0
14/07:00pm 11.6 10.3 9.3 86 1.2 SW 6 7 3 4 1019.5 1019.0 0.0
14/06:30pm 12.9 11.7 9.5 80 1.8 SW 6 7 3 4 1019.0 - 0.0
14/06:00pm 14.2 13.0 9.4 73 2.5 W 6 7 3 4 1018.6 1018.1 0.0
14/05:30pm 17.2 16.0 9.4 60 4.1 S 6 7 3 4 1018.4 - 0.0

Other Formats:

Comma delimited format used in spreadsheet applications
http://www.bom.gov.au/fwo/IDN60801/IDN60801.94712.axf

JavaScript Object Notation format (JSON) in row-major order
http://www.bom.gov.au/fwo/IDN60801/IDN60801.94712.json